Time;durP1;ratioP1;P1;durP2;ratioP2;P2;SDS_P1;SDS_P2;PMS_P1;PMS_P2;Temp;Humidity;BMP_temperature;BMP_pressure;BME280_temperature;BME280_humidity;BME280_pressure;Samples;Min_cycle;Max_cycle;Signal;HPM_P1;HPM_P2
2021/12/25 00:01:35;;;;;;;2.40;2.20;;;-2.80;99.90;;;;;;652417;219;26492;-77
2021/12/25 00:04:01;;;;;;;2.70;2.10;;;-2.70;99.90;;;;;;652308;219;26523;-77
2021/12/25 00:06:28;;;;;;;2.43;2.30;;;-2.70;99.90;;;;;;652397;219;26494;-76
2021/12/25 00:08:56;;;;;;;3.23;2.90;;;-2.80;99.90;;;;;;652394;219;26495;-76
2021/12/25 00:11:23;;;;;;;1.93;1.90;;;-2.80;99.90;;;;;;652439;219;26745;-77
2021/12/25 00:13:50;;;;;;;2.20;2.10;;;-2.90;99.90;;;;;;652400;219;26502;-78
2021/12/25 00:16:17;;;;;;;2.40;2.20;;;-3.00;99.90;;;;;;654070;218;26725;-77
2021/12/25 00:18:44;;;;;;;2.10;2.00;;;-3.00;99.90;;;;;;653757;219;26500;-77
2021/12/25 00:21:12;;;;;;;2.43;2.20;;;-2.80;99.90;;;;;;653434;219;26521;-77
2021/12/25 00:23:40;;;;;;;2.40;2.30;;;-2.90;99.90;;;;;;653336;219;26482;-77
2021/12/25 00:26:24;;;;;;;2.07;1.90;;;-3.00;99.90;;;;;;653075;219;26512;-77
2021/12/25 00:33:59;;;;;;;8.27;2.20;;;-2.90;99.90;;;;;;652909;219;26539;-77
2021/12/25 00:36:23;;;;;;;2.37;2.10;;;-2.90;99.90;;;;;;652579;219;26507;-77
2021/12/25 00:38:51;;;;;;;1.97;1.87;;;-2.80;99.90;;;;;;652777;219;26547;-77
2021/12/25 00:41:18;;;;;;;2.33;2.23;;;-2.80;99.90;;;;;;648252;221;26850;-79
2021/12/25 00:43:45;;;;;;;2.17;2.07;;;-2.80;99.90;;;;;;650081;219;26541;-79
2021/12/25 00:46:12;;;;;;;2.90;2.70;;;-3.00;99.90;;;;;;652218;219;26775;-79
2021/12/25 00:48:39;;;;;;;2.27;2.17;;;-2.90;99.90;;;;;;652145;219;26713;-78
2021/12/25 00:51:07;;;;;;;2.30;2.20;;;-3.10;99.90;;;;;;652052;219;27223;-79
2021/12/25 00:53:34;;;;;;;2.40;2.20;;;-3.10;99.90;;;;;;651829;220;26560;-79
2021/12/25 00:56:01;;;;;;;2.30;2.10;;;-3.30;99.90;;;;;;651826;219;26559;-78
2021/12/25 00:58:29;;;;;;;3.80;2.07;;;-3.20;99.90;;;;;;651859;219;26600;-79
2021/12/25 01:00:57;;;;;;;2.30;2.20;;;-3.30;99.90;;;;;;651921;220;26825;-79
2021/12/25 01:03:24;;;;;;;2.10;2.00;;;-3.20;99.90;;;;;;651967;219;26582;-79
2021/12/25 01:05:51;;;;;;;2.20;2.00;;;-3.30;99.90;;;;;;651913;220;26538;-79
2021/12/25 01:08:18;;;;;;;3.00;2.60;;;-3.10;99.90;;;;;;651762;219;26820;-79
2021/12/25 01:10:46;;;;;;;2.93;2.63;;;-3.30;99.90;;;;;;651851;219;26540;-79
2021/12/25 01:13:21;;;;;;;2.40;2.30;;;-3.10;99.90;;;;;;651875;219;27239;-79
2021/12/25 01:15:52;;;;;;;2.10;2.00;;;-3.00;99.90;;;;;;651166;219;26495;-79
2021/12/25 01:21:18;;;;;;;2.30;2.10;;;-3.20;99.90;;;;;;645115;219;26538;-77
2021/12/25 01:26:19;;;;;;;2.90;2.30;;;-3.40;99.90;;;;;;653604;218;26752;-78
2021/12/25 01:29:07;;;;;;;2.33;2.00;;;-3.30;99.90;;;;;;653171;219;26507;-78
2021/12/25 01:31:13;;;;;;;2.10;2.00;;;-3.10;99.90;;;;;;652210;220;26483;-78
2021/12/25 01:36:28;;;;;;;2.60;2.40;;;-3.30;99.90;;;;;;653234;219;26541;-77
2021/12/25 01:38:54;;;;;;;3.90;2.10;;;-3.00;99.90;;;;;;651710;219;26600;-77
2021/12/25 01:41:17;;;;;;;2.23;2.13;;;-3.00;99.90;;;;;;651932;219;26883;-78
2021/12/25 01:48:40;;;;;;;2.20;2.10;;;-3.20;99.90;;;;;;651722;219;27394;-85
2021/12/25 01:51:04;;;;;;;2.70;1.90;;;-3.30;99.90;;;;;;651634;219;26803;-83
2021/12/25 01:53:31;;;;;;;2.10;2.00;;;-3.40;99.90;;;;;;651795;219;27028;-83
2021/12/25 01:55:59;;;;;;;2.90;2.40;;;-3.30;99.90;;;;;;651832;219;26499;-81
2021/12/25 01:58:27;;;;;;;3.37;2.57;;;-3.10;99.90;;;;;;651902;219;26573;-82
2021/12/25 02:00:56;;;;;;;3.63;2.30;;;-3.10;99.90;;;;;;652080;219;26548;-82
2021/12/25 02:03:23;;;;;;;2.40;2.20;;;-3.10;99.90;;;;;;651841;219;26541;-83
2021/12/25 02:05:50;;;;;;;2.07;2.00;;;-3.10;99.90;;;;;;651685;219;26564;-82
2021/12/25 02:08:17;;;;;;;2.20;2.00;;;-3.10;99.90;;;;;;651763;219;26811;-83
2021/12/25 02:10:44;;;;;;;2.00;1.90;;;-3.20;99.90;;;;;;651653;218;26552;-82
2021/12/25 02:13:12;;;;;;;2.23;2.00;;;-3.10;99.90;;;;;;651735;219;26784;-82
2021/12/25 02:15:41;;;;;;;2.13;2.10;;;-3.30;99.90;;;;;;651768;219;26551;-83
2021/12/25 02:18:12;;;;;;;2.10;2.00;;;-3.20;99.90;;;;;;651543;219;26585;-82
2021/12/25 02:20:40;;;;;;;2.13;2.03;;;-3.30;99.90;;;;;;651273;219;26564;-82
2021/12/25 02:23:05;;;;;;;2.00;2.00;;;-3.30;99.90;;;;;;651345;219;26487;-83
2021/12/25 02:25:31;;;;;;;2.03;2.00;;;-3.60;99.90;;;;;;650824;218;26564;-83
2021/12/25 02:27:58;;;;;;;2.20;2.00;;;-3.60;99.90;;;;;;651614;219;26554;-82
2021/12/25 02:30:26;;;;;;;2.63;2.40;;;-3.60;99.90;;;;;;651661;220;26913;-82
2021/12/25 02:32:53;;;;;;;2.27;2.17;;;-3.50;99.90;;;;;;651686;220;26541;-82
2021/12/25 02:35:20;;;;;;;2.33;2.13;;;-3.30;99.90;;;;;;651693;219;26879;-83
2021/12/25 02:37:47;;;;;;;2.30;2.20;;;-3.20;99.90;;;;;;652031;218;26544;-82
2021/12/25 02:40:14;;;;;;;2.33;2.13;;;-3.40;99.90;;;;;;653359;218;26575;-83
2021/12/25 02:42:42;;;;;;;2.30;2.20;;;-3.50;99.90;;;;;;652923;219;26536;-83
2021/12/25 02:45:16;;;;;;;2.20;2.10;;;-3.40;99.90;;;;;;652674;219;26554;-82
2021/12/25 02:47:42;;;;;;;2.20;2.00;;;-3.40;99.90;;;;;;652289;219;26786;-82
2021/12/25 02:50:06;;;;;;;2.27;2.17;;;-3.60;99.90;;;;;;652079;219;26611;-82
2021/12/25 02:52:34;;;;;;;2.47;2.27;;;-3.60;99.90;;;;;;652358;219;26866;-82
2021/12/25 02:55:01;;;;;;;7.00;2.77;;;-3.60;99.90;;;;;;652365;219;26543;-83
2021/12/25 02:57:29;;;;;;;2.20;2.03;;;-3.50;99.90;;;;;;652110;219;26544;-82
2021/12/25 02:59:57;;;;;;;2.30;2.20;;;-3.60;99.90;;;;;;652044;219;26598;-82
2021/12/25 03:02:24;;;;;;;2.60;2.50;;;-3.60;99.90;;;;;;651976;219;26503;-83
2021/12/25 03:04:51;;;;;;;2.20;2.10;;;-3.70;99.90;;;;;;651905;219;26538;-82
2021/12/25 03:07:18;;;;;;;2.33;2.13;;;-3.50;99.90;;;;;;652096;219;26809;-83
2021/12/25 03:09:45;;;;;;;2.63;2.43;;;-3.40;99.90;;;;;;652001;219;26563;-82
2021/12/25 03:12:15;;;;;;;2.20;2.00;;;-3.50;99.90;;;;;;652134;219;26789;-82
2021/12/25 03:15:02;;;;;;;2.60;2.40;;;-3.50;99.90;;;;;;651803;219;27271;-83
2021/12/25 03:17:09;;;;;;;3.27;2.40;;;-3.70;99.90;;;;;;650261;219;26537;-83
2021/12/25 03:19:37;;;;;;;2.37;2.20;;;-3.70;99.90;;;;;;651662;219;26804;-83
2021/12/25 03:22:04;;;;;;;2.37;2.27;;;-3.80;99.90;;;;;;651866;219;26564;-83
2021/12/25 03:24:31;;;;;;;2.23;2.13;;;-3.90;99.90;;;;;;651837;219;27165;-83
2021/12/25 03:26:58;;;;;;;2.30;2.17;;;-3.90;99.90;;;;;;651798;219;26757;-82
2021/12/25 03:29:25;;;;;;;2.27;2.17;;;-3.80;99.90;;;;;;651668;219;27251;-83
2021/12/25 03:31:53;;;;;;;2.50;2.40;;;-3.80;99.90;;;;;;651770;219;26536;-83
2021/12/25 03:34:20;;;;;;;2.73;2.37;;;-3.80;99.90;;;;;;651798;219;26543;-84
2021/12/25 03:36:47;;;;;;;2.57;2.37;;;-3.70;99.90;;;;;;651718;219;26543;-83
2021/12/25 03:39:15;;;;;;;2.37;2.27;;;-3.90;99.90;;;;;;651652;219;26621;-82
2021/12/25 03:41:41;;;;;;;2.40;2.30;;;-4.30;99.90;;;;;;651761;219;26587;-83
2021/12/25 03:44:09;;;;;;;2.20;2.10;;;-4.20;99.90;;;;;;651732;220;26745;-83
2021/12/25 03:46:38;;;;;;;2.43;2.30;;;-4.30;99.90;;;;;;651786;219;26776;-83
2021/12/25 03:49:08;;;;;;;3.00;2.70;;;-4.10;99.90;;;;;;651515;219;26567;-83
2021/12/25 03:59:10;;;;;;;2.93;2.60;;;-4.10;99.90;;;;;;652418;220;26978;-83
2021/12/25 04:01:50;;;;;;;2.33;2.23;;;-4.30;99.90;;;;;;652121;219;26564;-82
2021/12/25 04:04:21;;;;;;;2.47;2.27;;;-4.30;99.90;;;;;;652118;217;26549;-83
2021/12/25 04:06:47;;;;;;;2.40;2.30;;;-4.10;99.90;;;;;;652096;219;26544;-82
2021/12/25 04:09:21;;;;;;;2.30;2.20;;;-4.00;99.90;;;;;;651957;219;26579;-82
2021/12/25 04:11:40;;;;;;;2.20;2.10;;;-3.90;99.90;;;;;;651344;219;26499;-83
2021/12/25 04:14:05;;;;;;;2.00;2.00;;;-3.70;99.90;;;;;;651759;219;27239;-83
2021/12/25 04:16:33;;;;;;;2.67;2.47;;;-3.90;99.90;;;;;;651858;219;26535;-83
2021/12/25 04:19:01;;;;;;;2.33;2.23;;;-3.90;99.90;;;;;;651850;219;26890;-83
2021/12/25 04:21:28;;;;;;;2.57;2.37;;;-3.80;99.90;;;;;;651852;219;26837;-83
2021/12/25 04:23:54;;;;;;;2.50;2.30;;;-3.90;99.90;;;;;;651881;219;26904;-82
2021/12/25 04:26:24;;;;;;;2.60;2.17;;;-4.00;99.90;;;;;;651760;219;26555;-83
2021/12/25 04:29:04;;;;;;;2.23;2.13;;;-4.30;99.90;;;;;;651570;219;26556;-83
2021/12/25 04:49:45;;;;;;;2.90;2.70;;;-4.00;99.90;;;;;;651733;219;26879;-84
2021/12/25 05:02:09;;;;;;;3.47;2.67;;;-4.00;99.90;;;;;;652977;218;26770;-83
2021/12/25 05:04:39;;;;;;;2.63;2.50;;;-3.90;99.90;;;;;;652913;219;26556;-83
2021/12/25 05:07:00;;;;;;;3.07;2.23;;;-4.00;99.90;;;;;;652372;219;26551;-82
2021/12/25 05:09:27;;;;;;;2.90;2.50;;;-3.90;99.90;;;;;;652629;219;26761;-83
2021/12/25 05:11:54;;;;;;;2.80;2.60;;;-3.80;99.90;;;;;;652341;219;26838;-83
2021/12/25 05:14:21;;;;;;;3.67;2.43;;;-3.60;99.90;;;;;;652417;219;26551;-83
2021/12/25 05:16:48;;;;;;;4.13;2.50;;;-3.50;99.90;;;;;;652439;220;27187;-83
2021/12/25 05:19:15;;;;;;;2.07;2.07;;;-3.50;99.90;;;;;;652360;219;26583;-83
2021/12/25 05:21:43;;;;;;;2.53;2.43;;;-3.60;99.90;;;;;;652184;219;27089;-83
2021/12/25 05:24:11;;;;;;;2.63;2.30;;;-3.60;99.90;;;;;;652265;219;26488;-83
2021/12/25 05:26:39;;;;;;;3.17;2.60;;;-3.60;99.90;;;;;;652175;220;26571;-83
2021/12/25 05:29:07;;;;;;;2.50;2.40;;;-3.60;99.90;;;;;;652179;219;26556;-83
2021/12/25 05:31:34;;;;;;;2.90;2.77;;;-3.60;99.90;;;;;;652177;219;26606;-83
2021/12/25 05:34:01;;;;;;;2.70;2.50;;;-3.70;99.90;;;;;;652307;219;26545;-83
2021/12/25 05:36:28;;;;;;;2.47;2.37;;;-3.70;99.90;;;;;;652218;219;26769;-84
2021/12/25 05:38:57;;;;;;;2.40;2.27;;;-3.60;99.90;;;;;;651764;220;26784;-81
2021/12/25 05:41:23;;;;;;;2.60;2.40;;;-3.70;99.90;;;;;;652332;219;26778;-83
2021/12/25 05:43:50;;;;;;;2.10;2.10;;;-3.70;99.90;;;;;;651866;219;26528;-83
2021/12/25 05:46:17;;;;;;;2.60;2.40;;;-3.70;99.90;;;;;;651795;219;26524;-83
2021/12/25 05:48:45;;;;;;;2.53;2.37;;;-3.60;99.90;;;;;;651839;219;26563;-82
2021/12/25 05:51:13;;;;;;;2.30;2.20;;;-3.50;99.90;;;;;;651756;219;26765;-84
2021/12/25 05:53:40;;;;;;;2.40;2.30;;;-3.50;99.90;;;;;;651804;219;26536;-83
2021/12/25 05:56:07;;;;;;;2.40;2.20;;;-3.60;99.90;;;;;;651703;219;26559;-83
2021/12/25 05:58:34;;;;;;;3.53;2.60;;;-3.60;99.90;;;;;;651752;219;26764;-83
2021/12/25 06:01:02;;;;;;;2.40;2.30;;;-3.60;99.90;;;;;;651811;219;26768;-83
2021/12/25 06:03:30;;;;;;;2.40;2.30;;;-3.80;99.90;;;;;;652403;219;26532;-83
2021/12/25 06:05:58;;;;;;;2.50;2.30;;;-3.90;99.90;;;;;;652449;220;26518;-86
2021/12/25 06:08:25;;;;;;;3.20;2.50;;;-3.90;99.90;;;;;;652422;219;26518;-83
2021/12/25 06:10:52;;;;;;;2.53;2.13;;;-4.10;99.90;;;;;;652416;219;26501;-85
2021/12/25 06:13:21;;;;;;;2.80;2.37;;;-4.40;99.90;;;;;;653458;218;27006;-83
2021/12/25 06:15:46;;;;;;;4.10;2.63;;;-4.50;99.90;;;;;;653826;219;26515;-83
2021/12/25 06:18:14;;;;;;;2.30;2.20;;;-4.30;99.90;;;;;;653549;219;26823;-84
2021/12/25 06:20:41;;;;;;;2.40;2.30;;;-4.10;99.90;;;;;;653431;218;26540;-87
2021/12/25 06:23:08;;;;;;;2.47;2.27;;;-3.90;99.90;;;;;;653196;219;26697;-84
2021/12/25 06:25:35;;;;;;;2.70;2.50;;;-3.70;99.90;;;;;;653169;219;26508;-83
2021/12/25 06:28:02;;;;;;;3.60;2.30;;;-3.70;99.90;;;;;;653100;219;26510;-83
2021/12/25 06:30:30;;;;;;;2.20;2.10;;;-3.80;99.90;;;;;;653020;219;26542;-84
2021/12/25 06:32:57;;;;;;;2.27;2.10;;;-3.90;99.90;;;;;;652759;219;26841;-83
2021/12/25 06:35:24;;;;;;;2.83;2.27;;;-4.10;99.90;;;;;;652770;219;26510;-84
2021/12/25 06:37:52;;;;;;;2.83;2.63;;;-3.90;99.90;;;;;;652784;220;26504;-85
2021/12/25 06:40:22;;;;;;;4.20;2.43;;;-3.80;99.90;;;;;;652711;219;26567;-82
2021/12/25 06:42:47;;;;;;;2.43;2.23;;;-3.80;99.90;;;;;;651939;219;26587;-81
2021/12/25 06:45:14;;;;;;;2.50;2.30;;;-3.70;99.90;;;;;;652155;219;26563;-80
2021/12/25 06:47:42;;;;;;;2.43;2.20;;;-3.60;99.90;;;;;;652070;219;26724;-81
2021/12/25 06:50:09;;;;;;;2.37;2.27;;;-3.60;99.90;;;;;;651726;219;26808;-82
2021/12/25 06:52:37;;;;;;;2.30;2.10;;;-3.70;99.90;;;;;;651415;219;26562;-81
2021/12/25 06:55:05;;;;;;;2.10;2.00;;;-3.70;99.90;;;;;;651576;219;26571;-81
2021/12/25 06:57:32;;;;;;;2.40;2.20;;;-3.70;99.90;;;;;;651765;219;26751;-82
2021/12/25 07:00:00;;;;;;;3.47;2.30;;;-3.60;99.90;;;;;;651748;219;26834;-81
2021/12/25 07:02:27;;;;;;;2.60;2.40;;;-3.60;99.90;;;;;;651788;219;26742;-85
2021/12/25 07:04:54;;;;;;;2.30;2.20;;;-3.60;99.90;;;;;;651802;219;26758;-81
2021/12/25 07:07:23;;;;;;;4.20;2.57;;;-3.60;99.90;;;;;;651795;219;26496;-81
2021/12/25 07:09:48;;;;;;;4.00;2.70;;;-3.70;99.90;;;;;;651569;218;26787;-81
2021/12/25 07:12:16;;;;;;;2.70;2.50;;;-3.80;99.90;;;;;;651685;219;26547;-81
2021/12/25 07:14:44;;;;;;;5.70;3.23;;;-3.80;99.90;;;;;;651726;219;26571;-81
2021/12/25 07:17:12;;;;;;;4.80;3.07;;;-3.70;99.90;;;;;;651948;219;26552;-82
2021/12/25 07:19:39;;;;;;;2.40;2.20;;;-3.70;99.90;;;;;;651945;219;26580;-81
2021/12/25 07:22:07;;;;;;;2.53;2.33;;;-3.60;99.90;;;;;;651976;219;26554;-81
2021/12/25 07:24:34;;;;;;;3.23;2.70;;;-3.50;99.90;;;;;;652684;218;26877;-81
2021/12/25 07:27:05;;;;;;;2.63;2.43;;;-3.40;99.90;;;;;;653499;219;26535;-81
2021/12/25 07:29:28;;;;;;;2.70;2.50;;;-3.50;99.90;;;;;;652856;219;26870;-81
2021/12/25 07:31:55;;;;;;;4.00;2.50;;;-3.50;99.90;;;;;;652946;219;26532;-81
2021/12/25 07:34:23;;;;;;;2.97;2.63;;;-3.40;99.90;;;;;;652686;218;26536;-81
2021/12/25 07:36:51;;;;;;;2.97;2.80;;;-3.30;99.90;;;;;;652547;219;26556;-81
2021/12/25 07:39:18;;;;;;;3.13;2.87;;;-3.20;99.90;;;;;;652509;220;26788;-80
2021/12/25 07:41:46;;;;;;;3.83;2.70;;;-3.20;99.90;;;;;;652580;219;26573;-81
2021/12/25 07:44:14;;;;;;;2.90;2.70;;;-3.20;99.90;;;;;;652245;219;26890;-81
2021/12/25 07:46:42;;;;;;;3.20;3.00;;;-3.20;99.90;;;;;;652206;219;26549;-81
2021/12/25 07:49:15;;;;;;;3.10;2.80;;;-3.30;99.90;;;;;;652185;220;26794;-81
2021/12/25 07:51:35;;;;;;;4.07;3.07;;;-3.30;99.90;;;;;;651825;219;26543;-81
2021/12/25 07:54:02;;;;;;;3.30;3.10;;;-3.30;99.90;;;;;;652213;219;26826;-81
2021/12/25 07:56:30;;;;;;;3.03;2.83;;;-3.30;99.90;;;;;;652230;219;26551;-81
2021/12/25 07:58:57;;;;;;;3.00;2.80;;;-3.20;99.90;;;;;;652173;219;26575;-81
2021/12/25 08:01:25;;;;;;;3.70;3.30;;;-3.20;99.90;;;;;;651921;219;26554;-83
2021/12/25 08:03:53;;;;;;;7.00;3.50;;;-3.10;99.90;;;;;;651823;219;26578;-81
2021/12/25 08:06:20;;;;;;;5.03;3.30;;;-3.10;99.90;;;;;;651841;219;26780;-81
2021/12/25 08:08:50;;;;;;;4.57;3.60;;;-3.20;99.90;;;;;;651861;219;26570;-81
2021/12/25 08:11:15;;;;;;;3.67;3.30;;;-3.20;99.90;;;;;;651787;218;26571;-81
2021/12/25 08:13:42;;;;;;;3.40;3.20;;;-3.30;99.90;;;;;;651821;219;26805;-82
2021/12/25 08:16:09;;;;;;;4.20;3.80;;;-3.20;99.90;;;;;;651771;219;26764;-81
2021/12/25 08:18:37;;;;;;;5.03;4.20;;;-3.00;99.90;;;;;;651770;219;27028;-81
2021/12/25 08:21:05;;;;;;;6.33;3.60;;;-3.00;99.90;;;;;;643286;220;26619;-81
2021/12/25 08:23:33;;;;;;;4.10;3.70;;;-3.10;99.90;;;;;;651808;219;26552;-80
2021/12/25 08:26:00;;;;;;;3.80;3.50;;;-3.10;99.90;;;;;;651810;219;26574;-80
2021/12/25 08:28:27;;;;;;;8.23;4.30;;;-3.10;99.90;;;;;;651724;219;26531;-81
2021/12/25 08:30:54;;;;;;;3.23;3.03;;;-3.20;99.90;;;;;;651771;219;26777;-81
2021/12/25 08:33:21;;;;;;;3.57;3.27;;;-3.20;99.90;;;;;;651867;219;26592;-80
2021/12/25 08:35:49;;;;;;;3.50;3.20;;;-3.20;99.90;;;;;;652269;218;26774;-82
2021/12/25 08:38:16;;;;;;;5.17;4.50;;;-3.30;99.90;;;;;;653583;220;26548;-81
2021/12/25 08:40:43;;;;;;;7.17;3.90;;;-3.40;99.90;;;;;;653102;219;27047;-81
2021/12/25 08:43:13;;;;;;;4.90;4.43;;;-3.10;99.90;;;;;;652816;219;26753;-82
2021/12/25 08:45:44;;;;;;;5.20;3.30;;;-3.30;99.90;;;;;;652599;219;26539;-81
2021/12/25 08:48:09;;;;;;;4.80;3.27;;;-3.30;99.90;;;;;;652433;217;26544;-81
2021/12/25 08:50:37;;;;;;;4.77;3.17;;;-3.30;99.90;;;;;;652443;219;26590;-81
2021/12/25 08:53:05;;;;;;;7.37;4.47;;;-3.00;99.90;;;;;;652547;220;26544;-80
2021/12/25 08:55:32;;;;;;;5.40;4.53;;;-3.00;99.90;;;;;;652307;219;26582;-81
2021/12/25 08:58:00;;;;;;;3.63;3.33;;;-2.90;99.90;;;;;;652249;219;26564;-81
2021/12/25 09:00:27;;;;;;;3.80;3.37;;;-2.90;99.90;;;;;;652141;219;26558;-81
2021/12/25 09:02:54;;;;;;;3.97;3.57;;;-3.00;99.90;;;;;;652204;219;26829;-81
2021/12/25 09:05:21;;;;;;;5.80;3.30;;;-2.90;99.90;;;;;;652236;219;26574;-81
2021/12/25 09:07:50;;;;;;;4.00;3.67;;;-2.70;99.90;;;;;;652224;220;26983;-81
2021/12/25 09:10:17;;;;;;;3.33;3.13;;;-2.50;99.90;;;;;;652179;220;26601;-81
2021/12/25 09:12:45;;;;;;;3.60;3.27;;;-2.50;99.90;;;;;;651981;219;26533;-86
2021/12/25 09:15:11;;;;;;;6.90;3.90;;;-2.50;99.90;;;;;;651884;219;26533;-81
2021/12/25 09:17:38;;;;;;;5.00;3.77;;;-2.80;99.90;;;;;;651902;219;26543;-81
2021/12/25 09:20:06;;;;;;;4.27;3.90;;;-3.00;99.90;;;;;;651900;219;26559;-81
2021/12/25 09:22:33;;;;;;;5.00;3.70;;;-2.90;99.90;;;;;;651847;219;26561;-81
2021/12/25 09:25:00;;;;;;;6.30;3.60;;;-2.70;99.90;;;;;;651838;219;26806;-80
2021/12/25 09:27:28;;;;;;;3.77;3.47;;;-2.30;99.90;;;;;;651818;219;26553;-80
2021/12/25 09:29:56;;;;;;;4.10;3.70;;;-2.20;99.90;;;;;;651694;219;26616;-79
2021/12/25 09:32:24;;;;;;;4.80;3.33;;;-2.40;99.90;;;;;;651781;219;26566;-79
2021/12/25 09:34:52;;;;;;;4.83;3.33;;;-2.40;99.90;;;;;;651870;219;26562;-79
2021/12/25 09:37:20;;;;;;;4.43;3.20;;;-3.00;99.90;;;;;;651838;219;26487;-79
2021/12/25 09:39:46;;;;;;;5.70;2.93;;;-3.10;99.90;;;;;;652304;219;26786;-79
2021/12/25 09:42:13;;;;;;;3.50;3.17;;;-2.90;99.90;;;;;;652438;219;26537;-80
2021/12/25 09:44:40;;;;;;;3.40;3.10;;;-2.70;99.90;;;;;;652432;219;26968;-79
2021/12/25 09:47:08;;;;;;;3.10;2.80;;;-2.90;99.90;;;;;;652591;218;26508;-79
2021/12/25 09:49:35;;;;;;;4.50;2.97;;;-2.90;99.90;;;;;;653905;218;26560;-79
2021/12/25 09:52:03;;;;;;;5.13;3.00;;;-2.50;99.90;;;;;;653135;219;26536;-79
2021/12/25 09:54:31;;;;;;;3.57;3.23;;;-2.20;99.90;;;;;;652893;219;26568;-80
2021/12/25 09:56:58;;;;;;;5.80;2.90;;;-2.20;99.90;;;;;;652725;220;26517;-79
2021/12/25 09:59:25;;;;;;;3.83;3.50;;;-2.00;99.90;;;;;;652443;219;26568;-79
2021/12/25 10:01:53;;;;;;;3.27;2.97;;;-1.90;99.90;;;;;;652479;219;27233;-78
2021/12/25 10:04:37;;;;;;;3.10;2.90;;;-1.90;99.90;;;;;;652927;219;26524;-84
2021/12/25 10:07:10;;;;;;;3.50;3.20;;;-1.80;99.90;;;;;;653657;219;26513;-80
2021/12/25 10:09:38;;;;;;;4.70;3.20;;;-1.80;99.90;;;;;;653394;219;26770;-80
2021/12/25 10:12:07;;;;;;;3.20;2.93;;;-2.20;99.90;;;;;;656229;219;26512;-82
2021/12/25 10:14:32;;;;;;;3.37;3.07;;;-2.20;99.90;;;;;;656119;219;26810;-80
2021/12/25 10:17:00;;;;;;;3.73;3.43;;;-1.90;99.90;;;;;;656285;219;26465;-80
2021/12/25 10:19:31;;;;;;;3.40;3.20;;;-1.80;99.90;;;;;;654393;219;26786;-80
2021/12/25 10:22:02;;;;;;;3.40;3.10;;;-2.00;99.90;;;;;;653068;219;26516;-80
2021/12/25 10:24:29;;;;;;;4.63;3.63;;;-2.00;99.90;;;;;;655964;219;26716;-80
2021/12/25 10:27:13;;;;;;;6.20;3.57;;;-1.70;99.90;;;;;;655781;219;26521;-82
2021/12/25 10:29:40;;;;;;;3.10;2.90;;;-1.50;99.90;;;;;;655275;219;26593;-79
2021/12/25 10:32:17;;;;;;;4.93;3.33;;;-1.40;99.90;;;;;;655301;219;26556;-79
2021/12/25 10:34:43;;;;;;;3.23;2.77;;;-1.50;99.90;;;;;;655219;219;26574;-79
2021/12/25 10:37:11;;;;;;;3.70;3.00;;;-1.30;99.90;;;;;;655328;219;26525;-78
2021/12/25 10:39:39;;;;;;;6.37;3.07;;;-1.20;99.90;;;;;;652440;219;26527;-78
2021/12/25 10:42:11;;;;;;;4.47;3.50;;;-1.20;99.90;;;;;;655428;219;26551;-79
2021/12/25 10:44:34;;;;;;;3.20;3.00;;;-1.30;99.90;;;;;;652359;219;26772;-80
2021/12/25 10:47:17;;;;;;;3.33;3.03;;;-1.30;99.90;;;;;;651805;219;26840;-79
2021/12/25 10:49:44;;;;;;;3.53;3.10;;;-1.20;99.90;;;;;;655022;219;27313;-79
2021/12/25 10:52:16;;;;;;;3.20;3.00;;;-1.40;99.90;;;;;;652751;219;26725;-79
2021/12/25 10:54:43;;;;;;;3.83;3.53;;;-1.20;99.90;;;;;;654472;219;26550;-79
2021/12/25 10:57:10;;;;;;;4.27;3.43;;;-0.90;99.90;;;;;;650782;220;26502;-80
2021/12/25 10:59:42;;;;;;;5.17;3.13;;;-0.90;99.90;;;;;;654792;217;26569;-79
2021/12/25 11:02:10;;;;;;;3.30;3.00;;;-0.80;99.90;;;;;;653341;219;26575;-79
2021/12/25 11:04:39;;;;;;;4.67;2.87;;;-1.00;99.90;;;;;;653430;219;26727;-79
2021/12/25 11:07:11;;;;;;;3.17;2.97;;;-1.00;99.90;;;;;;656457;219;27327;-79
2021/12/25 11:09:38;;;;;;;3.03;2.83;;;-0.90;99.90;;;;;;656076;219;26551;-78
2021/12/25 11:12:13;;;;;;;2.90;2.70;;;-1.00;99.90;;;;;;656223;219;26782;-80
2021/12/25 11:14:41;;;;;;;3.57;3.20;;;-0.80;99.90;;;;;;654569;219;26574;-79
2021/12/25 11:17:26;;;;;;;3.37;2.73;;;-0.80;99.90;;;;;;652632;219;26564;-79
2021/12/25 11:20:00;;;;;;;3.37;2.70;;;-0.80;99.90;;;;;;652331;219;26542;-79
2021/12/25 11:22:26;;;;;;;2.87;2.63;;;-0.60;99.90;;;;;;652325;219;26495;-79
2021/12/25 11:24:54;;;;;;;2.80;2.60;;;-0.40;99.90;;;;;;652345;219;26547;-79
2021/12/25 11:27:22;;;;;;;2.87;2.60;;;-0.30;99.90;;;;;;654891;219;26553;-79
2021/12/25 11:29:49;;;;;;;3.57;2.80;;;-0.30;99.90;;;;;;655388;219;26529;-79
2021/12/25 11:32:18;;;;;;;3.37;3.07;;;-0.50;99.90;;;;;;652327;219;26558;-79
2021/12/25 11:34:43;;;;;;;3.23;3.00;;;-0.50;99.90;;;;;;653809;219;26897;-79
2021/12/25 11:37:10;;;;;;;4.10;3.30;;;-0.70;99.90;;;;;;654447;219;26538;-79
2021/12/25 11:39:37;;;;;;;3.63;2.83;;;-0.90;99.90;;;;;;652270;220;26788;-79
2021/12/25 11:42:05;;;;;;;3.40;3.00;;;-0.80;99.90;;;;;;652632;219;26496;-80
2021/12/25 11:44:36;;;;;;;3.20;2.90;;;-0.40;99.90;;;;;;654672;219;26542;-79
2021/12/25 11:47:02;;;;;;;4.37;2.97;;;-0.70;99.90;;;;;;652355;220;26560;-79
2021/12/25 11:49:29;;;;;;;4.20;2.73;;;-0.80;99.90;;;;;;629503;228;26559;-79
2021/12/25 11:52:02;;;;;;;3.97;2.90;;;-0.70;99.90;;;;;;625194;228;26581;-80
2021/12/25 11:55:01;;;;;;;4.73;3.10;;;-0.60;99.90;;;;;;650208;221;26552;-80
2021/12/25 11:57:45;;;;;;;2.80;2.60;;;-0.60;99.90;;;;;;649600;221;26852;-80
2021/12/25 11:59:53;;;;;;;2.77;2.67;;;-0.50;99.90;;;;;;636036;225;26623;-78
2021/12/25 12:02:40;;;;;;;2.77;2.57;;;-0.40;99.90;;;;;;628393;229;26591;-79
2021/12/25 12:05:17;;;;;;;3.23;2.60;;;-0.40;99.90;;;;;;653782;220;26728;-79
2021/12/25 12:08:03;;;;;;;4.63;2.77;;;-0.50;99.90;;;;;;652892;219;26784;-79
2021/12/25 12:10:42;;;;;;;3.03;2.67;;;-0.30;99.90;;;;;;653492;217;26557;-79
2021/12/25 12:13:25;;;;;;;5.17;2.47;;;-0.30;99.90;;;;;;657027;219;26542;-79
2021/12/25 12:15:53;;;;;;;3.80;2.50;;;-0.20;99.90;;;;;;656552;219;26567;-80
2021/12/25 12:18:33;;;;;;;2.93;2.73;;;-0.30;99.90;;;;;;656389;219;26519;-79
2021/12/25 12:21:15;;;;;;;3.73;2.50;;;-0.20;99.90;;;;;;656098;219;26816;-80
2021/12/25 12:23:53;;;;;;;2.80;2.60;;;-0.40;99.90;;;;;;653489;219;26552;-79
2021/12/25 12:26:13;;;;;;;3.17;2.50;;;-0.40;99.90;;;;;;652142;219;26501;-80
2021/12/25 12:28:45;;;;;;;6.27;3.10;;;-0.30;99.90;;;;;;652515;219;26597;-80
2021/12/25 12:31:25;;;;;;;6.90;4.87;;;-0.40;99.90;;;;;;652212;219;26495;-80
2021/12/25 12:33:52;;;;;;;3.17;2.87;;;-0.40;99.90;;;;;;652180;220;26726;-79
2021/12/25 12:36:20;;;;;;;2.97;2.70;;;-0.40;99.90;;;;;;654661;219;26850;-79
2021/12/25 12:38:52;;;;;;;5.30;3.03;;;-0.30;99.60;;;;;;655362;219;26516;-79
2021/12/25 12:41:20;;;;;;;6.37;2.77;;;-0.50;99.00;;;;;;652030;219;26555;-80
2021/12/25 12:43:51;;;;;;;2.97;2.77;;;-0.50;99.00;;;;;;653564;219;26943;-79
2021/12/25 12:46:19;;;;;;;5.20;2.77;;;-0.60;99.90;;;;;;653143;219;26518;-79
2021/12/25 12:48:58;;;;;;;2.63;2.43;;;-0.20;99.90;;;;;;655180;219;26545;-80
2021/12/25 12:51:25;;;;;;;3.37;2.47;;;-0.20;99.90;;;;;;653646;219;26796;-80
2021/12/25 12:53:53;;;;;;;2.60;2.40;;;0.00;99.90;;;;;;653834;219;26531;-80
2021/12/25 12:56:22;;;;;;;2.50;2.40;;;0.10;99.90;;;;;;651908;219;26571;-79
2021/12/25 12:58:51;;;;;;;2.80;2.60;;;0.10;99.90;;;;;;651884;219;27177;-80
2021/12/25 13:01:19;;;;;;;4.00;2.70;;;-0.30;98.90;;;;;;651896;219;26789;-80
2021/12/25 13:03:46;;;;;;;2.50;2.30;;;-0.60;99.60;;;;;;651946;219;26529;-80
2021/12/25 13:06:15;;;;;;;3.77;2.40;;;-0.40;99.90;;;;;;651879;219;26935;-81
2021/12/25 13:08:42;;;;;;;2.37;2.17;;;-0.30;99.90;;;;;;654600;219;26580;-80
2021/12/25 13:11:15;;;;;;;3.63;2.50;;;-0.20;99.80;;;;;;652657;219;26783;-87
2021/12/25 13:13:40;;;;;;;2.47;2.30;;;-0.30;98.50;;;;;;655106;218;26548;-84
2021/12/25 13:16:05;;;;;;;2.43;2.23;;;-0.30;98.20;;;;;;655148;219;26540;-81
2021/12/25 13:18:33;;;;;;;2.80;2.57;;;-0.60;96.70;;;;;;652569;219;26563;-81
2021/12/25 13:21:00;;;;;;;2.50;2.40;;;-0.50;99.60;;;;;;652378;219;26563;-80
2021/12/25 13:23:28;;;;;;;3.73;2.73;;;-0.40;99.70;;;;;;653430;218;26808;-80
2021/12/25 13:25:57;;;;;;;2.70;2.37;;;-0.50;99.10;;;;;;653000;219;26555;-80
2021/12/25 13:28:23;;;;;;;4.77;3.73;;;-0.50;99.10;;;;;;654923;219;26751;-81
2021/12/25 13:30:52;;;;;;;4.90;2.53;;;-0.20;99.90;;;;;;655758;219;26515;-81
2021/12/25 13:33:19;;;;;;;4.20;2.60;;;-0.10;99.90;;;;;;654385;219;26548;-81
2021/12/25 13:35:46;;;;;;;3.17;2.97;;;0.00;99.90;;;;;;652432;218;26782;-81
2021/12/25 13:38:14;;;;;;;4.70;3.00;;;0.10;99.90;;;;;;652543;219;26800;-81
2021/12/25 13:40:41;;;;;;;6.37;2.63;;;0.00;97.50;;;;;;654773;219;26543;-80
2021/12/25 13:43:09;;;;;;;3.07;2.87;;;-0.40;99.10;;;;;;651201;218;26509;-81
2021/12/25 13:45:36;;;;;;;3.30;2.90;;;-0.40;99.10;;;;;;656298;219;26499;-81
2021/12/25 13:48:03;;;;;;;3.13;2.90;;;-0.50;99.50;;;;;;653546;219;26554;-81